sensor_id;sensor_type;location;lat;lon;timestamp;P1;durP1;ratioP1;P2;durP2;ratioP2
3193;SDS011;1608;50.860;13.466;2022-10-31T00:01:22;8.47;;;3.57;;
3193;SDS011;1608;50.860;13.466;2022-10-31T00:03:50;3.20;;;2.90;;
3193;SDS011;1608;50.860;13.466;2022-10-31T00:06:17;8.70;;;4.20;;
3193;SDS011;1608;50.860;13.466;2022-10-31T00:08:44;5.30;;;3.47;;
3193;SDS011;1608;50.860;13.466;2022-10-31T00:11:11;8.67;;;4.27;;
3193;SDS011;1608;50.860;13.466;2022-10-31T00:13:38;4.97;;;2.83;;
3193;SDS011;1608;50.860;13.466;2022-10-31T00:16:06;12.10;;;4.03;;
3193;SDS011;1608;50.860;13.466;2022-10-31T00:18:39;4.00;;;3.03;;
3193;SDS011;1608;50.860;13.466;2022-10-31T00:21:06;6.50;;;3.40;;
3193;SDS011;1608;50.860;13.466;2022-10-31T00:23:32;4.50;;;2.90;;
3193;SDS011;1608;50.860;13.466;2022-10-31T00:26:00;7.73;;;3.00;;
3193;SDS011;1608;50.860;13.466;2022-10-31T00:28:27;3.30;;;3.00;;
3193;SDS011;1608;50.860;13.466;2022-10-31T00:30:57;6.40;;;3.10;;
3193;SDS011;1608;50.860;13.466;2022-10-31T00:33:26;4.80;;;3.07;;
3193;SDS011;1608;50.860;13.466;2022-10-31T00:35:53;11.57;;;3.50;;
3193;SDS011;1608;50.860;13.466;2022-10-31T00:38:20;10.33;;;3.23;;
3193;SDS011;1608;50.860;13.466;2022-10-31T00:40:46;6.13;;;3.90;;
3193;SDS011;1608;50.860;13.466;2022-10-31T00:43:13;3.80;;;2.90;;
3193;SDS011;1608;50.860;13.466;2022-10-31T00:45:40;5.83;;;2.90;;
3193;SDS011;1608;50.860;13.466;2022-10-31T00:48:07;8.30;;;3.97;;
3193;SDS011;1608;50.860;13.466;2022-10-31T00:50:36;7.40;;;3.80;;
3193;SDS011;1608;50.860;13.466;2022-10-31T00:53:03;9.43;;;3.00;;
3193;SDS011;1608;50.860;13.466;2022-10-31T00:55:30;8.57;;;3.43;;
3193;SDS011;1608;50.860;13.466;2022-10-31T00:57:57;6.50;;;2.83;;
3193;SDS011;1608;50.860;13.466;2022-10-31T01:00:23;6.80;;;2.70;;
3193;SDS011;1608;50.860;13.466;2022-10-31T01:02:50;4.83;;;2.93;;
3193;SDS011;1608;50.860;13.466;2022-10-31T01:05:17;3.90;;;2.73;;
3193;SDS011;1608;50.860;13.466;2022-10-31T01:07:45;4.80;;;2.77;;
3193;SDS011;1608;50.860;13.466;2022-10-31T01:10:12;8.47;;;2.67;;
3193;SDS011;1608;50.860;13.466;2022-10-31T01:12:39;5.80;;;3.20;;
3193;SDS011;1608;50.860;13.466;2022-10-31T01:15:08;4.70;;;2.57;;
3193;SDS011;1608;50.860;13.466;2022-10-31T01:17:36;14.50;;;3.10;;
3193;SDS011;1608;50.860;13.466;2022-10-31T01:20:03;5.70;;;2.57;;
3193;SDS011;1608;50.860;13.466;2022-10-31T01:22:31;4.30;;;2.70;;
3193;SDS011;1608;50.860;13.466;2022-10-31T01:25:00;6.43;;;3.60;;
3193;SDS011;1608;50.860;13.466;2022-10-31T01:27:27;5.67;;;3.60;;
3193;SDS011;1608;50.860;13.466;2022-10-31T01:29:54;4.60;;;2.37;;
3193;SDS011;1608;50.860;13.466;2022-10-31T01:32:20;3.50;;;2.40;;
3193;SDS011;1608;50.860;13.466;2022-10-31T01:34:47;5.47;;;3.70;;
3193;SDS011;1608;50.860;13.466;2022-10-31T01:37:14;6.90;;;2.50;;
3193;SDS011;1608;50.860;13.466;2022-10-31T01:39:41;6.43;;;2.80;;
3193;SDS011;1608;50.860;13.466;2022-10-31T01:42:10;8.60;;;2.83;;
3193;SDS011;1608;50.860;13.466;2022-10-31T01:44:49;5.63;;;3.43;;
3193;SDS011;1608;50.860;13.466;2022-10-31T01:47:19;7.60;;;3.60;;
3193;SDS011;1608;50.860;13.466;2022-10-31T01:49:52;5.50;;;3.50;;
3193;SDS011;1608;50.860;13.466;2022-10-31T01:52:23;7.63;;;3.47;;
3193;SDS011;1608;50.860;13.466;2022-10-31T01:54:53;4.40;;;2.33;;
3193;SDS011;1608;50.860;13.466;2022-10-31T01:57:27;7.70;;;3.70;;
3193;SDS011;1608;50.860;13.466;2022-10-31T01:59:56;8.03;;;2.83;;
3193;SDS011;1608;50.860;13.466;2022-10-31T02:02:25;2.50;;;2.30;;
3193;SDS011;1608;50.860;13.466;2022-10-31T02:04:55;5.47;;;3.17;;
3193;SDS011;1608;50.860;13.466;2022-10-31T02:07:24;11.20;;;3.47;;
3193;SDS011;1608;50.860;13.466;2022-10-31T02:09:53;4.23;;;2.27;;
3193;SDS011;1608;50.860;13.466;2022-10-31T02:12:22;14.00;;;3.00;;
3193;SDS011;1608;50.860;13.466;2022-10-31T02:14:52;7.23;;;3.50;;
3193;SDS011;1608;50.860;13.466;2022-10-31T02:17:19;4.00;;;2.80;;
3193;SDS011;1608;50.860;13.466;2022-10-31T02:19:46;4.00;;;2.83;;
3193;SDS011;1608;50.860;13.466;2022-10-31T02:22:21;4.10;;;2.80;;
3193;SDS011;1608;50.860;13.466;2022-10-31T02:24:57;4.27;;;3.60;;
3193;SDS011;1608;50.860;13.466;2022-10-31T02:30:29;4.43;;;2.70;;
3193;SDS011;1608;50.860;13.466;2022-10-31T02:33:09;6.07;;;3.20;;
3193;SDS011;1608;50.860;13.466;2022-10-31T02:35:49;6.33;;;2.87;;
3193;SDS011;1608;50.860;13.466;2022-10-31T02:38:26;5.90;;;3.97;;
3193;SDS011;1608;50.860;13.466;2022-10-31T02:41:04;5.53;;;2.90;;
3193;SDS011;1608;50.860;13.466;2022-10-31T02:43:40;4.17;;;3.20;;
3193;SDS011;1608;50.860;13.466;2022-10-31T02:46:15;9.43;;;2.40;;
3193;SDS011;1608;50.860;13.466;2022-10-31T02:48:52;11.70;;;3.10;;
3193;SDS011;1608;50.860;13.466;2022-10-31T02:51:21;5.77;;;2.63;;
3193;SDS011;1608;50.860;13.466;2022-10-31T02:53:48;4.70;;;2.67;;
3193;SDS011;1608;50.860;13.466;2022-10-31T02:56:15;5.30;;;3.23;;
3193;SDS011;1608;50.860;13.466;2022-10-31T02:58:44;5.47;;;3.00;;
3193;SDS011;1608;50.860;13.466;2022-10-31T03:01:21;21.33;;;3.30;;
3193;SDS011;1608;50.860;13.466;2022-10-31T03:04:15;9.10;;;2.50;;
3193;SDS011;1608;50.860;13.466;2022-10-31T03:06:59;5.57;;;2.90;;
3193;SDS011;1608;50.860;13.466;2022-10-31T03:09:32;8.87;;;2.80;;
3193;SDS011;1608;50.860;13.466;2022-10-31T03:12:07;5.33;;;3.17;;
3193;SDS011;1608;50.860;13.466;2022-10-31T03:14:38;4.13;;;2.57;;
3193;SDS011;1608;50.860;13.466;2022-10-31T03:17:10;4.53;;;2.90;;
3193;SDS011;1608;50.860;13.466;2022-10-31T03:19:46;8.63;;;3.13;;
3193;SDS011;1608;50.860;13.466;2022-10-31T03:22:15;7.17;;;3.20;;
3193;SDS011;1608;50.860;13.466;2022-10-31T03:24:45;5.40;;;3.50;;
3193;SDS011;1608;50.860;13.466;2022-10-31T03:27:14;4.83;;;2.87;;
3193;SDS011;1608;50.860;13.466;2022-10-31T03:29:44;4.27;;;3.27;;
3193;SDS011;1608;50.860;13.466;2022-10-31T03:32:14;7.10;;;3.10;;
3193;SDS011;1608;50.860;13.466;2022-10-31T03:34:44;5.17;;;2.83;;
3193;SDS011;1608;50.860;13.466;2022-10-31T03:37:16;4.40;;;2.50;;
3193;SDS011;1608;50.860;13.466;2022-10-31T03:39:45;7.20;;;3.27;;
3193;SDS011;1608;50.860;13.466;2022-10-31T03:42:14;4.20;;;2.73;;
3193;SDS011;1608;50.860;13.466;2022-10-31T03:44:46;5.13;;;3.30;;
3193;SDS011;1608;50.860;13.466;2022-10-31T03:47:16;6.50;;;3.27;;
3193;SDS011;1608;50.860;13.466;2022-10-31T03:49:43;3.33;;;2.93;;
3193;SDS011;1608;50.860;13.466;2022-10-31T03:52:13;2.93;;;2.47;;
3193;SDS011;1608;50.860;13.466;2022-10-31T03:54:51;3.40;;;2.80;;
3193;SDS011;1608;50.860;13.466;2022-10-31T03:57:22;4.80;;;3.20;;
3193;SDS011;1608;50.860;13.466;2022-10-31T03:59:53;5.40;;;2.83;;
3193;SDS011;1608;50.860;13.466;2022-10-31T04:02:26;5.70;;;3.20;;
3193;SDS011;1608;50.860;13.466;2022-10-31T04:04:55;12.17;;;3.87;;
3193;SDS011;1608;50.860;13.466;2022-10-31T04:07:24;15.27;;;3.67;;
3193;SDS011;1608;50.860;13.466;2022-10-31T04:09:55;6.37;;;2.77;;
3193;SDS011;1608;50.860;13.466;2022-10-31T04:12:23;6.20;;;3.23;;
3193;SDS011;1608;50.860;13.466;2022-10-31T04:14:52;7.70;;;3.63;;
3193;SDS011;1608;50.860;13.466;2022-10-31T04:17:21;7.97;;;3.57;;
3193;SDS011;1608;50.860;13.466;2022-10-31T04:19:51;6.07;;;3.30;;
3193;SDS011;1608;50.860;13.466;2022-10-31T04:22:18;9.37;;;3.07;;
3193;SDS011;1608;50.860;13.466;2022-10-31T04:24:46;5.07;;;2.97;;
3193;SDS011;1608;50.860;13.466;2022-10-31T04:27:12;4.57;;;2.97;;
3193;SDS011;1608;50.860;13.466;2022-10-31T04:29:39;7.00;;;3.20;;
3193;SDS011;1608;50.860;13.466;2022-10-31T04:32:06;5.20;;;3.13;;
3193;SDS011;1608;50.860;13.466;2022-10-31T04:34:33;6.87;;;3.43;;
3193;SDS011;1608;50.860;13.466;2022-10-31T04:36:59;4.67;;;2.80;;
3193;SDS011;1608;50.860;13.466;2022-10-31T04:39:26;7.33;;;4.37;;
3193;SDS011;1608;50.860;13.466;2022-10-31T04:41:54;4.80;;;2.77;;
3193;SDS011;1608;50.860;13.466;2022-10-31T04:44:21;6.13;;;3.60;;
3193;SDS011;1608;50.860;13.466;2022-10-31T04:46:48;6.50;;;2.80;;
3193;SDS011;1608;50.860;13.466;2022-10-31T04:49:14;4.43;;;3.03;;
3193;SDS011;1608;50.860;13.466;2022-10-31T04:51:41;5.50;;;2.90;;
3193;SDS011;1608;50.860;13.466;2022-10-31T04:54:08;5.00;;;3.37;;
3193;SDS011;1608;50.860;13.466;2022-10-31T04:56:34;7.60;;;3.20;;
3193;SDS011;1608;50.860;13.466;2022-10-31T04:59:02;5.67;;;3.00;;
3193;SDS011;1608;50.860;13.466;2022-10-31T05:01:29;5.50;;;3.40;;
3193;SDS011;1608;50.860;13.466;2022-10-31T05:03:56;7.23;;;4.27;;
3193;SDS011;1608;50.860;13.466;2022-10-31T05:06:22;7.97;;;3.40;;
3193;SDS011;1608;50.860;13.466;2022-10-31T05:08:49;6.50;;;4.20;;
3193;SDS011;1608;50.860;13.466;2022-10-31T05:11:16;9.50;;;3.30;;
3193;SDS011;1608;50.860;13.466;2022-10-31T05:13:43;14.93;;;4.77;;
3193;SDS011;1608;50.860;13.466;2022-10-31T05:16:11;5.47;;;3.50;;
3193;SDS011;1608;50.860;13.466;2022-10-31T05:18:37;12.30;;;3.80;;
3193;SDS011;1608;50.860;13.466;2022-10-31T05:21:04;7.53;;;3.60;;
3193;SDS011;1608;50.860;13.466;2022-10-31T05:23:31;4.97;;;3.50;;
3193;SDS011;1608;50.860;13.466;2022-10-31T05:25:58;7.10;;;3.30;;
3193;SDS011;1608;50.860;13.466;2022-10-31T05:28:24;10.00;;;3.40;;
3193;SDS011;1608;50.860;13.466;2022-10-31T05:30:51;4.17;;;2.93;;
3193;SDS011;1608;50.860;13.466;2022-10-31T05:33:19;6.23;;;3.93;;
3193;SDS011;1608;50.860;13.466;2022-10-31T05:35:46;4.23;;;3.80;;
3193;SDS011;1608;50.860;13.466;2022-10-31T05:38:12;3.60;;;2.53;;
3193;SDS011;1608;50.860;13.466;2022-10-31T05:40:39;5.93;;;2.93;;
3193;SDS011;1608;50.860;13.466;2022-10-31T05:43:06;11.17;;;2.80;;
3193;SDS011;1608;50.860;13.466;2022-10-31T05:45:32;5.83;;;3.77;;
3193;SDS011;1608;50.860;13.466;2022-10-31T05:48:00;6.10;;;3.00;;
3193;SDS011;1608;50.860;13.466;2022-10-31T05:50:29;9.93;;;3.60;;
3193;SDS011;1608;50.860;13.466;2022-10-31T05:52:57;4.30;;;3.40;;
3193;SDS011;1608;50.860;13.466;2022-10-31T05:55:25;8.97;;;3.40;;
3193;SDS011;1608;50.860;13.466;2022-10-31T05:57:52;4.67;;;3.80;;
3193;SDS011;1608;50.860;13.466;2022-10-31T06:00:20;8.33;;;4.03;;
3193;SDS011;1608;50.860;13.466;2022-10-31T06:02:47;14.83;;;3.83;;
3193;SDS011;1608;50.860;13.466;2022-10-31T06:05:14;7.43;;;4.50;;
3193;SDS011;1608;50.860;13.466;2022-10-31T06:07:42;4.90;;;3.40;;
3193;SDS011;1608;50.860;13.466;2022-10-31T06:10:09;6.87;;;4.10;;
3193;SDS011;1608;50.860;13.466;2022-10-31T06:12:36;6.10;;;3.50;;
3193;SDS011;1608;50.860;13.466;2022-10-31T06:15:03;11.90;;;4.20;;
3193;SDS011;1608;50.860;13.466;2022-10-31T06:17:31;6.83;;;3.70;;
3193;SDS011;1608;50.860;13.466;2022-10-31T06:19:58;7.03;;;3.77;;
3193;SDS011;1608;50.860;13.466;2022-10-31T06:22:25;8.33;;;4.73;;
3193;SDS011;1608;50.860;13.466;2022-10-31T06:24:53;4.77;;;3.90;;
3193;SDS011;1608;50.860;13.466;2022-10-31T06:27:19;5.87;;;4.63;;
3193;SDS011;1608;50.860;13.466;2022-10-31T06:29:46;5.67;;;4.50;;
3193;SDS011;1608;50.860;13.466;2022-10-31T06:32:13;5.50;;;4.90;;
3193;SDS011;1608;50.860;13.466;2022-10-31T06:34:40;9.23;;;6.10;;
3193;SDS011;1608;50.860;13.466;2022-10-31T06:39:37;10.40;;;5.40;;
3193;SDS011;1608;50.860;13.466;2022-10-31T06:42:05;7.80;;;4.80;;
3193;SDS011;1608;50.860;13.466;2022-10-31T06:44:32;7.20;;;5.10;;
3193;SDS011;1608;50.860;13.466;2022-10-31T06:46:59;8.60;;;5.20;;
3193;SDS011;1608;50.860;13.466;2022-10-31T06:49:26;9.00;;;4.83;;
3193;SDS011;1608;50.860;13.466;2022-10-31T06:51:52;11.20;;;5.97;;
3193;SDS011;1608;50.860;13.466;2022-10-31T06:54:19;9.53;;;5.10;;
3193;SDS011;1608;50.860;13.466;2022-10-31T06:56:46;7.50;;;5.40;;
3193;SDS011;1608;50.860;13.466;2022-10-31T06:59:14;16.17;;;7.50;;
3193;SDS011;1608;50.860;13.466;2022-10-31T07:01:41;7.60;;;5.47;;
3193;SDS011;1608;50.860;13.466;2022-10-31T07:04:08;8.90;;;5.73;;
3193;SDS011;1608;50.860;13.466;2022-10-31T07:06:35;14.83;;;6.17;;
3193;SDS011;1608;50.860;13.466;2022-10-31T07:09:02;9.30;;;5.50;;
3193;SDS011;1608;50.860;13.466;2022-10-31T07:11:29;8.70;;;4.97;;
3193;SDS011;1608;50.860;13.466;2022-10-31T07:13:56;10.33;;;6.57;;
3193;SDS011;1608;50.860;13.466;2022-10-31T07:16:24;9.27;;;6.33;;
3193;SDS011;1608;50.860;13.466;2022-10-31T07:18:50;10.50;;;5.67;;
3193;SDS011;1608;50.860;13.466;2022-10-31T07:21:17;10.60;;;5.27;;
3193;SDS011;1608;50.860;13.466;2022-10-31T07:23:46;7.97;;;5.73;;
3193;SDS011;1608;50.860;13.466;2022-10-31T07:26:13;8.60;;;5.90;;
3193;SDS011;1608;50.860;13.466;2022-10-31T07:28:40;11.20;;;8.20;;
3193;SDS011;1608;50.860;13.466;2022-10-31T07:31:07;10.03;;;7.63;;
3193;SDS011;1608;50.860;13.466;2022-10-31T07:33:35;11.63;;;8.00;;
3193;SDS011;1608;50.860;13.466;2022-10-31T07:36:01;10.13;;;6.80;;
3193;SDS011;1608;50.860;13.466;2022-10-31T07:38:28;10.17;;;7.40;;
3193;SDS011;1608;50.860;13.466;2022-10-31T07:40:55;10.27;;;8.10;;
3193;SDS011;1608;50.860;13.466;2022-10-31T07:43:22;9.10;;;6.00;;
3193;SDS011;1608;50.860;13.466;2022-10-31T07:45:49;8.07;;;5.60;;
3193;SDS011;1608;50.860;13.466;2022-10-31T07:48:17;9.23;;;6.20;;
3193;SDS011;1608;50.860;13.466;2022-10-31T07:50:45;12.63;;;8.30;;
3193;SDS011;1608;50.860;13.466;2022-10-31T07:53:12;12.47;;;8.17;;
3193;SDS011;1608;50.860;13.466;2022-10-31T07:55:40;10.47;;;8.53;;
3193;SDS011;1608;50.860;13.466;2022-10-31T07:58:07;10.73;;;9.67;;
3193;SDS011;1608;50.860;13.466;2022-10-31T08:00:35;8.63;;;5.80;;
3193;SDS011;1608;50.860;13.466;2022-10-31T08:03:03;7.73;;;5.33;;
3193;SDS011;1608;50.860;13.466;2022-10-31T08:05:31;7.30;;;4.93;;
3193;SDS011;1608;50.860;13.466;2022-10-31T08:08:00;11.90;;;7.13;;
3193;SDS011;1608;50.860;13.466;2022-10-31T08:10:27;11.30;;;10.30;;
3193;SDS011;1608;50.860;13.466;2022-10-31T08:12:54;12.57;;;7.97;;
3193;SDS011;1608;50.860;13.466;2022-10-31T08:15:22;11.20;;;7.27;;
3193;SDS011;1608;50.860;13.466;2022-10-31T08:17:49;11.33;;;8.40;;
3193;SDS011;1608;50.860;13.466;2022-10-31T08:20:16;8.27;;;6.80;;
3193;SDS011;1608;50.860;13.466;2022-10-31T08:22:43;8.87;;;6.13;;
3193;SDS011;1608;50.860;13.466;2022-10-31T08:25:23;8.00;;;5.93;;
3193;SDS011;1608;50.860;13.466;2022-10-31T08:27:50;11.97;;;6.00;;
3193;SDS011;1608;50.860;13.466;2022-10-31T08:30:18;6.60;;;4.80;;
3193;SDS011;1608;50.860;13.466;2022-10-31T08:32:45;9.23;;;6.10;;
3193;SDS011;1608;50.860;13.466;2022-10-31T08:35:13;7.30;;;6.13;;
3193;SDS011;1608;50.860;13.466;2022-10-31T08:37:40;11.47;;;5.50;;
3193;SDS011;1608;50.860;13.466;2022-10-31T08:40:07;6.50;;;4.60;;
3193;SDS011;1608;50.860;13.466;2022-10-31T08:42:37;9.00;;;4.80;;
3193;SDS011;1608;50.860;13.466;2022-10-31T08:45:04;6.20;;;4.77;;
3193;SDS011;1608;50.860;13.466;2022-10-31T08:47:31;7.70;;;5.10;;
3193;SDS011;1608;50.860;13.466;2022-10-31T08:49:58;7.33;;;5.73;;
3193;SDS011;1608;50.860;13.466;2022-10-31T08:52:24;12.83;;;4.80;;
3193;SDS011;1608;50.860;13.466;2022-10-31T08:54:51;10.37;;;4.30;;
3193;SDS011;1608;50.860;13.466;2022-10-31T08:57:18;17.03;;;4.43;;
3193;SDS011;1608;50.860;13.466;2022-10-31T08:59:46;7.23;;;4.40;;
3193;SDS011;1608;50.860;13.466;2022-10-31T09:02:13;10.23;;;4.20;;
3193;SDS011;1608;50.860;13.466;2022-10-31T09:04:39;11.97;;;4.83;;
3193;SDS011;1608;50.860;13.466;2022-10-31T09:07:06;5.23;;;3.97;;
3193;SDS011;1608;50.860;13.466;2022-10-31T09:09:33;6.17;;;4.20;;
3193;SDS011;1608;50.860;13.466;2022-10-31T09:12:00;10.47;;;4.57;;
3193;SDS011;1608;50.860;13.466;2022-10-31T09:14:26;7.90;;;4.77;;
3193;SDS011;1608;50.860;13.466;2022-10-31T09:16:54;11.10;;;4.57;;
3193;SDS011;1608;50.860;13.466;2022-10-31T09:19:21;15.33;;;5.13;;
3193;SDS011;1608;50.860;13.466;2022-10-31T09:21:51;9.83;;;4.50;;
3193;SDS011;1608;50.860;13.466;2022-10-31T09:24:18;9.07;;;5.30;;
3193;SDS011;1608;50.860;13.466;2022-10-31T09:26:45;10.03;;;5.40;;
3193;SDS011;1608;50.860;13.466;2022-10-31T09:29:12;9.17;;;5.50;;
3193;SDS011;1608;50.860;13.466;2022-10-31T09:31:39;10.50;;;6.33;;
3193;SDS011;1608;50.860;13.466;2022-10-31T09:34:07;12.83;;;5.60;;
3193;SDS011;1608;50.860;13.466;2022-10-31T09:36:33;7.60;;;5.63;;
3193;SDS011;1608;50.860;13.466;2022-10-31T09:39:00;12.33;;;5.20;;
3193;SDS011;1608;50.860;13.466;2022-10-31T09:41:28;10.00;;;6.43;;
3193;SDS011;1608;50.860;13.466;2022-10-31T09:44:04;11.87;;;4.57;;
3193;SDS011;1608;50.860;13.466;2022-10-31T09:46:38;9.60;;;6.07;;
3193;SDS011;1608;50.860;13.466;2022-10-31T09:49:23;9.83;;;5.03;;
3193;SDS011;1608;50.860;13.466;2022-10-31T09:51:57;6.63;;;5.37;;
3193;SDS011;1608;50.860;13.466;2022-10-31T09:54:30;7.53;;;4.87;;
3193;SDS011;1608;50.860;13.466;2022-10-31T09:57:01;9.97;;;5.30;;
3193;SDS011;1608;50.860;13.466;2022-10-31T09:59:30;14.63;;;6.07;;
3193;SDS011;1608;50.860;13.466;2022-10-31T10:02:00;8.60;;;6.30;;
3193;SDS011;1608;50.860;13.466;2022-10-31T10:04:36;11.03;;;5.83;;
3193;SDS011;1608;50.860;13.466;2022-10-31T10:07:10;9.03;;;6.30;;
3193;SDS011;1608;50.860;13.466;2022-10-31T10:09:42;10.63;;;5.00;;
3193;SDS011;1608;50.860;13.466;2022-10-31T10:12:13;8.27;;;4.83;;
3193;SDS011;1608;50.860;13.466;2022-10-31T10:14:57;13.13;;;5.97;;
3193;SDS011;1608;50.860;13.466;2022-10-31T10:17:37;9.10;;;6.73;;
3193;SDS011;1608;50.860;13.466;2022-10-31T10:20:17;13.37;;;4.77;;
3193;SDS011;1608;50.860;13.466;2022-10-31T10:22:57;11.90;;;5.20;;
3193;SDS011;1608;50.860;13.466;2022-10-31T10:25:37;12.20;;;5.13;;
3193;SDS011;1608;50.860;13.466;2022-10-31T10:28:08;8.73;;;5.50;;
3193;SDS011;1608;50.860;13.466;2022-10-31T10:30:44;7.67;;;4.73;;
3193;SDS011;1608;50.860;13.466;2022-10-31T10:33:13;8.90;;;5.80;;
3193;SDS011;1608;50.860;13.466;2022-10-31T10:35:46;14.13;;;5.03;;
3193;SDS011;1608;50.860;13.466;2022-10-31T10:38:18;9.40;;;6.50;;
3193;SDS011;1608;50.860;13.466;2022-10-31T10:40:49;8.23;;;4.40;;
3193;SDS011;1608;50.860;13.466;2022-10-31T10:43:20;8.57;;;5.17;;
3193;SDS011;1608;50.860;13.466;2022-10-31T10:45:50;23.67;;;6.40;;
3193;SDS011;1608;50.860;13.466;2022-10-31T10:48:44;7.93;;;5.47;;
3193;SDS011;1608;50.860;13.466;2022-10-31T10:51:20;9.93;;;4.67;;
3193;SDS011;1608;50.860;13.466;2022-10-31T10:53:59;12.73;;;6.10;;
3193;SDS011;1608;50.860;13.466;2022-10-31T10:56:45;12.30;;;5.43;;
3193;SDS011;1608;50.860;13.466;2022-10-31T10:59:21;6.27;;;5.00;;
3193;SDS011;1608;50.860;13.466;2022-10-31T11:01:48;9.93;;;5.00;;
3193;SDS011;1608;50.860;13.466;2022-10-31T11:07:08;11.20;;;4.77;;
3193;SDS011;1608;50.860;13.466;2022-10-31T11:09:36;12.93;;;5.03;;
3193;SDS011;1608;50.860;13.466;2022-10-31T11:12:05;7.13;;;4.67;;
3193;SDS011;1608;50.860;13.466;2022-10-31T11:14:35;9.53;;;5.40;;
3193;SDS011;1608;50.860;13.466;2022-10-31T11:17:09;13.30;;;6.63;;
3193;SDS011;1608;50.860;13.466;2022-10-31T11:19:48;11.17;;;7.10;;
3193;SDS011;1608;50.860;13.466;2022-10-31T11:22:31;10.90;;;6.13;;
3193;SDS011;1608;50.860;13.466;2022-10-31T11:24:58;9.30;;;5.03;;
3193;SDS011;1608;50.860;13.466;2022-10-31T11:27:25;7.13;;;5.50;;
3193;SDS011;1608;50.860;13.466;2022-10-31T11:29:52;14.00;;;4.77;;
3193;SDS011;1608;50.860;13.466;2022-10-31T11:32:29;7.43;;;4.93;;
3193;SDS011;1608;50.860;13.466;2022-10-31T11:34:56;9.67;;;4.83;;
3193;SDS011;1608;50.860;13.466;2022-10-31T11:37:27;8.40;;;5.40;;
3193;SDS011;1608;50.860;13.466;2022-10-31T11:39:58;9.90;;;4.90;;
3193;SDS011;1608;50.860;13.466;2022-10-31T11:42:26;9.10;;;4.53;;
3193;SDS011;1608;50.860;13.466;2022-10-31T11:44:55;9.70;;;5.10;;
3193;SDS011;1608;50.860;13.466;2022-10-31T11:47:24;11.30;;;5.60;;
3193;SDS011;1608;50.860;13.466;2022-10-31T11:49:53;10.70;;;5.00;;
3193;SDS011;1608;50.860;13.466;2022-10-31T11:52:23;6.03;;;4.10;;
3193;SDS011;1608;50.860;13.466;2022-10-31T11:54:53;9.83;;;4.70;;
3193;SDS011;1608;50.860;13.466;2022-10-31T11:57:23;5.60;;;3.67;;
3193;SDS011;1608;50.860;13.466;2022-10-31T11:59:51;11.33;;;4.80;;
3193;SDS011;1608;50.860;13.466;2022-10-31T12:02:20;7.70;;;4.70;;
3193;SDS011;1608;50.860;13.466;2022-10-31T12:04:48;5.30;;;4.60;;
3193;SDS011;1608;50.860;13.466;2022-10-31T12:07:20;13.10;;;4.87;;
3193;SDS011;1608;50.860;13.466;2022-10-31T12:09:46;16.13;;;5.50;;
3193;SDS011;1608;50.860;13.466;2022-10-31T12:12:21;9.13;;;4.33;;
3193;SDS011;1608;50.860;13.466;2022-10-31T12:15:14;6.17;;;4.40;;
3193;SDS011;1608;50.860;13.466;2022-10-31T12:17:49;9.80;;;4.33;;
3193;SDS011;1608;50.860;13.466;2022-10-31T12:20:23;12.77;;;5.13;;
3193;SDS011;1608;50.860;13.466;2022-10-31T12:22:59;16.60;;;5.50;;
3193;SDS011;1608;50.860;13.466;2022-10-31T12:25:32;13.10;;;6.10;;
3193;SDS011;1608;50.860;13.466;2022-10-31T12:28:14;6.13;;;3.97;;
3193;SDS011;1608;50.860;13.466;2022-10-31T12:30:58;7.60;;;4.00;;
3193;SDS011;1608;50.860;13.466;2022-10-31T12:33:40;9.27;;;5.10;;
3193;SDS011;1608;50.860;13.466;2022-10-31T12:36:23;9.23;;;4.90;;
3193;SDS011;1608;50.860;13.466;2022-10-31T12:39:05;4.63;;;4.10;;
3193;SDS011;1608;50.860;13.466;2022-10-31T12:41:46;11.97;;;6.37;;
3193;SDS011;1608;50.860;13.466;2022-10-31T12:47:25;10.83;;;4.50;;
3193;SDS011;1608;50.860;13.466;2022-10-31T12:50:12;7.37;;;4.90;;
3193;SDS011;1608;50.860;13.466;2022-10-31T12:52:52;12.93;;;4.67;;
3193;SDS011;1608;50.860;13.466;2022-10-31T12:55:31;8.20;;;4.87;;
3193;SDS011;1608;50.860;13.466;2022-10-31T12:58:05;10.40;;;4.67;;
3193;SDS011;1608;50.860;13.466;2022-10-31T13:00:37;11.60;;;5.20;;
3193;SDS011;1608;50.860;13.466;2022-10-31T13:03:12;7.37;;;5.60;;
3193;SDS011;1608;50.860;13.466;2022-10-31T13:05:48;14.23;;;5.70;;
3193;SDS011;1608;50.860;13.466;2022-10-31T13:08:20;7.83;;;5.37;;
3193;SDS011;1608;50.860;13.466;2022-10-31T13:10:51;12.83;;;5.80;;
3193;SDS011;1608;50.860;13.466;2022-10-31T13:13:24;7.13;;;4.20;;
3193;SDS011;1608;50.860;13.466;2022-10-31T13:15:58;11.30;;;5.33;;
3193;SDS011;1608;50.860;13.466;2022-10-31T13:18:30;10.40;;;5.10;;
3193;SDS011;1608;50.860;13.466;2022-10-31T13:21:02;7.87;;;4.43;;
3193;SDS011;1608;50.860;13.466;2022-10-31T13:23:34;6.50;;;4.90;;
3193;SDS011;1608;50.860;13.466;2022-10-31T13:26:09;4.67;;;3.93;;
3193;SDS011;1608;50.860;13.466;2022-10-31T13:28:40;12.17;;;4.43;;
3193;SDS011;1608;50.860;13.466;2022-10-31T13:31:12;7.13;;;4.93;;
3193;SDS011;1608;50.860;13.466;2022-10-31T13:33:39;10.03;;;5.83;;
3193;SDS011;1608;50.860;13.466;2022-10-31T13:36:19;13.23;;;5.20;;
3193;SDS011;1608;50.860;13.466;2022-10-31T13:38:52;14.73;;;5.37;;
3193;SDS011;1608;50.860;13.466;2022-10-31T13:41:28;14.40;;;4.53;;
3193;SDS011;1608;50.860;13.466;2022-10-31T13:44:02;7.87;;;4.87;;
3193;SDS011;1608;50.860;13.466;2022-10-31T13:46:36;4.97;;;4.10;;
3193;SDS011;1608;50.860;13.466;2022-10-31T13:49:18;8.53;;;5.03;;
3193;SDS011;1608;50.860;13.466;2022-10-31T13:51:50;9.10;;;6.37;;
3193;SDS011;1608;50.860;13.466;2022-10-31T13:54:21;10.63;;;5.30;;
3193;SDS011;1608;50.860;13.466;2022-10-31T13:56:50;8.03;;;5.90;;
3193;SDS011;1608;50.860;13.466;2022-10-31T13:59:19;6.67;;;4.87;;
3193;SDS011;1608;50.860;13.466;2022-10-31T14:01:55;8.30;;;5.37;;
3193;SDS011;1608;50.860;13.466;2022-10-31T14:04:25;13.70;;;6.30;;
3193;SDS011;1608;50.860;13.466;2022-10-31T14:06:57;10.80;;;5.10;;
3193;SDS011;1608;50.860;13.466;2022-10-31T14:09:31;7.67;;;4.90;;
3193;SDS011;1608;50.860;13.466;2022-10-31T14:12:02;8.10;;;5.10;;
3193;SDS011;1608;50.860;13.466;2022-10-31T14:14:32;8.23;;;4.87;;
3193;SDS011;1608;50.860;13.466;2022-10-31T14:17:17;9.73;;;5.60;;
3193;SDS011;1608;50.860;13.466;2022-10-31T14:19:59;6.10;;;5.50;;
3193;SDS011;1608;50.860;13.466;2022-10-31T14:22:29;8.50;;;5.70;;
3193;SDS011;1608;50.860;13.466;2022-10-31T14:24:57;12.73;;;6.10;;
3193;SDS011;1608;50.860;13.466;2022-10-31T14:27:34;10.63;;;6.40;;
3193;SDS011;1608;50.860;13.466;2022-10-31T14:30:15;14.67;;;6.10;;
3193;SDS011;1608;50.860;13.466;2022-10-31T14:32:44;8.53;;;5.90;;
3193;SDS011;1608;50.860;13.466;2022-10-31T14:35:17;9.23;;;6.20;;
3193;SDS011;1608;50.860;13.466;2022-10-31T14:37:54;11.40;;;5.77;;
3193;SDS011;1608;50.860;13.466;2022-10-31T14:40:33;9.40;;;6.20;;
3193;SDS011;1608;50.860;13.466;2022-10-31T14:43:28;9.77;;;5.97;;
3193;SDS011;1608;50.860;13.466;2022-10-31T14:46:13;11.73;;;6.37;;
3193;SDS011;1608;50.860;13.466;2022-10-31T14:48:52;7.47;;;5.43;;
3193;SDS011;1608;50.860;13.466;2022-10-31T14:51:39;13.97;;;6.73;;
3193;SDS011;1608;50.860;13.466;2022-10-31T14:54:10;10.70;;;6.90;;
3193;SDS011;1608;50.860;13.466;2022-10-31T14:56:43;13.57;;;9.07;;
3193;SDS011;1608;50.860;13.466;2022-10-31T14:59:15;14.53;;;7.93;;
3193;SDS011;1608;50.860;13.466;2022-10-31T15:01:48;17.20;;;7.60;;
3193;SDS011;1608;50.860;13.466;2022-10-31T15:04:24;12.13;;;8.93;;
3193;SDS011;1608;50.860;13.466;2022-10-31T15:06:54;9.83;;;7.53;;
3193;SDS011;1608;50.860;13.466;2022-10-31T15:09:27;11.00;;;7.30;;
3193;SDS011;1608;50.860;13.466;2022-10-31T15:11:55;12.17;;;8.37;;
3193;SDS011;1608;50.860;13.466;2022-10-31T15:14:25;12.93;;;7.40;;
3193;SDS011;1608;50.860;13.466;2022-10-31T15:16:55;13.80;;;7.33;;
3193;SDS011;1608;50.860;13.466;2022-10-31T15:19:24;12.57;;;7.07;;
3193;SDS011;1608;50.860;13.466;2022-10-31T15:21:52;11.60;;;6.80;;
3193;SDS011;1608;50.860;13.466;2022-10-31T15:24:22;11.60;;;7.70;;
3193;SDS011;1608;50.860;13.466;2022-10-31T15:26:51;11.80;;;7.07;;
3193;SDS011;1608;50.860;13.466;2022-10-31T15:29:20;12.27;;;7.33;;